EJU74EP LPMA-LPPT
Flight info
| Callsign | EJU74EP |
|---|---|
| Flight time | 1h 17m |
| Altitude | 36000 |
| Route | DEGUN DCT NARTA DCT ESUTI |
| Aircraft | A320/M-SDE2E3FGHIJ1RWXY/LB1 |
Departure
| Time | 2026-05-03 22:05 |
|---|---|
| Airport | Cristiano Ronaldo International Airport (LPMA) |
Arrival
| Time | 2026-05-03 23:22 |
|---|---|
| Airport | Lisbon Humberto Delgado Airport (LPPT) |
| Time | Latitude | Longitude | Altitude | Speed | Heading |
|---|---|---|---|---|---|
| 2026-05-03 21:29 | 32.69257 | -16.77791 | 169 ft | 0 kts | 138° |
| 2026-05-03 21:52 | 32.69260 | -16.77795 | 169 ft | 3 kts | 138° |
| 2026-05-03 21:52 | 32.69280 | -16.77816 | 169 ft | 3 kts | 138° |
| 2026-05-03 21:52 | 32.69297 | -16.77831 | 169 ft | 4 kts | 173° |
| 2026-05-03 21:52 | 32.69317 | -16.77823 | 169 ft | 4 kts | 227° |
| 2026-05-03 21:53 | 32.69335 | -16.77800 | 169 ft | 4 kts | 226° |
| 2026-05-03 21:53 | 32.69343 | -16.77790 | 169 ft | 0 kts | 226° |
| 2026-05-03 21:55 | 32.69341 | -16.77792 | 169 ft | 3 kts | 226° |
| 2026-05-03 21:56 | 32.69301 | -16.77842 | 169 ft | 7 kts | 226° |
| 2026-05-03 21:56 | 32.69288 | -16.77881 | 169 ft | 0 kts | 270° |
| 2026-05-03 21:58 | 32.69288 | -16.77924 | 169 ft | 14 kts | 270° |
| 2026-05-03 21:59 | 32.69268 | -16.78053 | 168 ft | 18 kts | 231° |
| 2026-05-03 21:59 | 32.69172 | -16.78167 | 164 ft | 22 kts | 225° |
| 2026-05-03 21:59 | 32.69053 | -16.78304 | 157 ft | 26 kts | 224° |
| 2026-05-03 21:59 | 32.68948 | -16.78438 | 153 ft | 17 kts | 242° |
| 2026-05-03 22:00 | 32.68909 | -16.78467 | 153 ft | 2 kts | 79° |
| 2026-05-03 22:00 | 32.68919 | -16.78459 | 153 ft | 0 kts | 43° |
| 2026-05-03 22:04 | 32.69013 | -16.78353 | 155 ft | 56 kts | 44° |
| 2026-05-03 22:04 | 32.69500 | -16.77785 | 173 ft | 137 kts | 44° |
| 2026-05-03 22:05 | 32.70264 | -16.76889 | 660 ft | 159 kts | 46° |
| 2026-05-03 22:05 | 32.70797 | -16.75720 | 1447 ft | 166 kts | 77° |
| 2026-05-03 22:05 | 32.70725 | -16.74296 | 1857 ft | 185 kts | 109° |
| 2026-05-03 22:05 | 32.70256 | -16.72801 | 2247 ft | 202 kts | 109° |
| 2026-05-03 22:06 | 32.69756 | -16.71154 | 2585 ft | 223 kts | 109° |
| 2026-05-03 22:06 | 32.69206 | -16.69330 | 2910 ft | 247 kts | 109° |
| 2026-05-03 22:06 | 32.68602 | -16.67320 | 3360 ft | 269 kts | 109° |
| 2026-05-03 22:06 | 32.67975 | -16.65224 | 4104 ft | 276 kts | 109° |
| 2026-05-03 22:07 | 32.67322 | -16.63028 | 4974 ft | 281 kts | 108° |
| 2026-05-03 22:07 | 32.66678 | -16.60857 | 5826 ft | 284 kts | 108° |
| 2026-05-03 22:07 | 32.66044 | -16.58617 | 6659 ft | 288 kts | 102° |
| 2026-05-03 22:07 | 32.65844 | -16.56256 | 7447 ft | 289 kts | 83° |
| 2026-05-03 22:08 | 32.66264 | -16.53932 | 8226 ft | 289 kts | 65° |
| 2026-05-03 22:08 | 32.67275 | -16.51883 | 8991 ft | 289 kts | 46° |
| 2026-05-03 22:08 | 32.68700 | -16.50195 | 9752 ft | 291 kts | 40° |
| 2026-05-03 22:08 | 32.70180 | -16.48522 | 10471 ft | 297 kts | 40° |
| 2026-05-03 22:09 | 32.71726 | -16.46776 | 10800 ft | 318 kts | 40° |
| 2026-05-03 22:09 | 32.73389 | -16.44899 | 11066 ft | 339 kts | 40° |
| 2026-05-03 22:09 | 32.75114 | -16.42936 | 11653 ft | 347 kts | 40° |
| 2026-05-03 22:10 | 32.78626 | -16.38910 | 12961 ft | 359 kts | 40° |
| 2026-05-03 22:10 | 32.80433 | -16.36838 | 13606 ft | 364 kts | 40° |
| 2026-05-03 22:10 | 32.82265 | -16.34736 | 14245 ft | 368 kts | 40° |
| 2026-05-03 22:10 | 32.84122 | -16.32608 | 14860 ft | 373 kts | 40° |
| 2026-05-03 22:11 | 32.86002 | -16.30458 | 15460 ft | 378 kts | 40° |
| 2026-05-03 22:11 | 32.87907 | -16.28278 | 16049 ft | 382 kts | 39° |
| 2026-05-03 22:11 | 32.89834 | -16.26069 | 16626 ft | 387 kts | 39° |
| 2026-05-03 22:11 | 32.91755 | -16.23864 | 17181 ft | 391 kts | 39° |
| 2026-05-03 22:12 | 32.93723 | -16.21603 | 17736 ft | 395 kts | 39° |
| 2026-05-03 22:12 | 32.95713 | -16.19316 | 18264 ft | 400 kts | 39° |
| 2026-05-03 22:12 | 32.97723 | -16.17003 | 18794 ft | 404 kts | 39° |
| 2026-05-03 22:12 | 32.99754 | -16.14663 | 19324 ft | 408 kts | 39° |
| 2026-05-03 22:13 | 33.01805 | -16.12300 | 19840 ft | 412 kts | 39° |
| 2026-05-03 22:13 | 33.03876 | -16.09914 | 20352 ft | 416 kts | 39° |
| 2026-05-03 22:13 | 33.05966 | -16.07507 | 20850 ft | 420 kts | 39° |
| 2026-05-03 22:13 | 33.08077 | -16.05075 | 21359 ft | 424 kts | 39° |
| 2026-05-03 22:14 | 33.10202 | -16.02622 | 21844 ft | 427 kts | 39° |
| 2026-05-03 22:14 | 33.12347 | -16.00144 | 22323 ft | 431 kts | 39° |
| 2026-05-03 22:14 | 33.14483 | -15.97674 | 22786 ft | 435 kts | 38° |
| 2026-05-03 22:14 | 33.16656 | -15.95158 | 23302 ft | 436 kts | 38° |
| 2026-05-03 22:15 | 33.18842 | -15.92625 | 23746 ft | 440 kts | 38° |
| 2026-05-03 22:15 | 33.21037 | -15.90081 | 23870 ft | 440 kts | 38° |
| 2026-05-03 22:15 | 33.23235 | -15.87528 | 23995 ft | 441 kts | 38° |
| 2026-05-03 22:15 | 33.25443 | -15.84965 | 24213 ft | 444 kts | 38° |
| 2026-05-03 22:16 | 33.27664 | -15.82384 | 24656 ft | 447 kts | 38° |
| 2026-05-03 22:16 | 33.29902 | -15.79782 | 25069 ft | 450 kts | 38° |
| 2026-05-03 22:16 | 33.32153 | -15.77166 | 25471 ft | 453 kts | 38° |
| 2026-05-03 22:16 | 33.34418 | -15.74533 | 25859 ft | 455 kts | 38° |
| 2026-05-03 22:17 | 33.36693 | -15.71885 | 26235 ft | 458 kts | 38° |
| 2026-05-03 22:17 | 33.38949 | -15.69253 | 26586 ft | 460 kts | 39° |
| 2026-05-03 22:17 | 33.41246 | -15.66568 | 26938 ft | 463 kts | 39° |
| 2026-05-03 22:17 | 33.43560 | -15.63877 | 27276 ft | 465 kts | 38° |
| 2026-05-03 22:18 | 33.45906 | -15.61205 | 27623 ft | 466 kts | 38° |
| 2026-05-03 22:18 | 33.48277 | -15.58548 | 27957 ft | 468 kts | 38° |
| 2026-05-03 22:18 | 33.50671 | -15.55887 | 28283 ft | 470 kts | 38° |
| 2026-05-03 22:18 | 33.53076 | -15.53218 | 28599 ft | 472 kts | 38° |
| 2026-05-03 22:19 | 33.55486 | -15.50532 | 28896 ft | 475 kts | 38° |
| 2026-05-03 22:19 | 33.57904 | -15.47821 | 29193 ft | 476 kts | 38° |
| 2026-05-03 22:19 | 33.60305 | -15.45156 | 29514 ft | 477 kts | 38° |
| 2026-05-03 22:19 | 33.62760 | -15.42463 | 29800 ft | 479 kts | 37° |
| 2026-05-03 22:20 | 33.65229 | -15.39772 | 30071 ft | 480 kts | 37° |
| 2026-05-03 22:20 | 33.67709 | -15.37075 | 30336 ft | 482 kts | 37° |
| 2026-05-03 22:20 | 33.70197 | -15.34366 | 30591 ft | 484 kts | 38° |
| 2026-05-03 22:20 | 33.72692 | -15.31640 | 30843 ft | 486 kts | 38° |
| 2026-05-03 22:21 | 33.75192 | -15.28899 | 31087 ft | 487 kts | 38° |
| 2026-05-03 22:21 | 33.77697 | -15.26145 | 31328 ft | 488 kts | 38° |
| 2026-05-03 22:21 | 33.80203 | -15.23385 | 31564 ft | 489 kts | 38° |
| 2026-05-03 22:21 | 33.82679 | -15.20658 | 31887 ft | 488 kts | 38° |
| 2026-05-03 22:22 | 33.85177 | -15.17901 | 32199 ft | 487 kts | 38° |
| 2026-05-03 22:22 | 33.87672 | -15.15143 | 32511 ft | 487 kts | 38° |
| 2026-05-03 22:22 | 33.90162 | -15.12392 | 32812 ft | 486 kts | 38° |
| 2026-05-03 22:22 | 33.92650 | -15.09643 | 33110 ft | 485 kts | 38° |
| 2026-05-03 22:23 | 33.95136 | -15.06900 | 33398 ft | 484 kts | 38° |
| 2026-05-03 22:23 | 33.97621 | -15.04159 | 33686 ft | 484 kts | 38° |
| 2026-05-03 22:23 | 34.00097 | -15.01420 | 33972 ft | 483 kts | 38° |
| 2026-05-03 22:23 | 34.02569 | -14.98680 | 34262 ft | 482 kts | 38° |
| 2026-05-03 22:24 | 34.05048 | -14.95935 | 34429 ft | 485 kts | 38° |
| 2026-05-03 22:24 | 34.07505 | -14.93212 | 34607 ft | 487 kts | 38° |
| 2026-05-03 22:24 | 34.09998 | -14.90445 | 34817 ft | 488 kts | 38° |
| 2026-05-03 22:24 | 34.12493 | -14.87666 | 35055 ft | 488 kts | 37° |
| 2026-05-03 22:25 | 34.14983 | -14.84887 | 35283 ft | 488 kts | 38° |
| 2026-05-03 22:25 | 34.17477 | -14.82105 | 35489 ft | 488 kts | 37° |
| 2026-05-03 22:25 | 34.19974 | -14.79325 | 35713 ft | 488 kts | 37° |
| 2026-05-03 22:25 | 34.22464 | -14.76550 | 35937 ft | 487 kts | 37° |
| 2026-05-03 22:26 | 34.24951 | -14.73770 | 36146 ft | 487 kts | 37° |
| 2026-05-03 22:26 | 34.27436 | -14.70991 | 36256 ft | 486 kts | 37° |
| 2026-05-03 22:26 | 34.29878 | -14.68259 | 36277 ft | 483 kts | 37° |
| 2026-05-03 22:27 | 34.34796 | -14.62756 | 36275 ft | 481 kts | 37° |
| 2026-05-03 22:27 | 34.39704 | -14.57245 | 36275 ft | 481 kts | 37° |
| 2026-05-03 22:28 | 34.44603 | -14.51735 | 36276 ft | 481 kts | 37° |
| 2026-05-03 22:28 | 34.49510 | -14.46227 | 36264 ft | 481 kts | 37° |
| 2026-05-03 22:29 | 34.54409 | -14.40709 | 36262 ft | 481 kts | 37° |
| 2026-05-03 22:29 | 34.59273 | -14.35225 | 36263 ft | 481 kts | 37° |
| 2026-05-03 22:30 | 34.64166 | -14.29687 | 36262 ft | 481 kts | 37° |
| 2026-05-03 22:30 | 34.69056 | -14.24143 | 36255 ft | 481 kts | 37° |
| 2026-05-03 22:31 | 34.73950 | -14.18585 | 36251 ft | 481 kts | 37° |
| 2026-05-03 22:31 | 34.78814 | -14.13058 | 36244 ft | 482 kts | 37° |
| 2026-05-03 22:32 | 34.83711 | -14.07481 | 36244 ft | 483 kts | 37° |
| 2026-05-03 22:32 | 34.88611 | -14.01889 | 36243 ft | 483 kts | 37° |
| 2026-05-03 22:33 | 34.93515 | -13.96282 | 36256 ft | 483 kts | 37° |
| 2026-05-03 22:33 | 34.98410 | -13.90675 | 36257 ft | 483 kts | 37° |
| 2026-05-03 22:34 | 35.03269 | -13.85103 | 36257 ft | 483 kts | 37° |
| 2026-05-03 22:34 | 35.08156 | -13.79488 | 36256 ft | 482 kts | 37° |
| 2026-05-03 22:35 | 35.13044 | -13.73870 | 36249 ft | 483 kts | 37° |
| 2026-05-03 22:35 | 35.17932 | -13.68236 | 36241 ft | 483 kts | 37° |
| 2026-05-03 22:36 | 35.22824 | -13.62595 | 36238 ft | 484 kts | 37° |
| 2026-05-03 22:36 | 35.27717 | -13.56943 | 36239 ft | 484 kts | 37° |
| 2026-05-03 22:37 | 35.32568 | -13.51313 | 36237 ft | 484 kts | 37° |
| 2026-05-03 22:37 | 35.37458 | -13.45628 | 36235 ft | 485 kts | 38° |
| 2026-05-03 22:38 | 35.42352 | -13.39941 | 36236 ft | 485 kts | 38° |
| 2026-05-03 22:38 | 35.47250 | -13.34245 | 36237 ft | 485 kts | 38° |
| 2026-05-03 22:39 | 35.52107 | -13.28568 | 36238 ft | 485 kts | 38° |
| 2026-05-03 22:39 | 35.56994 | -13.22852 | 36237 ft | 485 kts | 38° |
| 2026-05-03 22:40 | 35.61883 | -13.17130 | 36241 ft | 485 kts | 38° |
| 2026-05-03 22:40 | 35.66764 | -13.11413 | 36243 ft | 485 kts | 38° |
| 2026-05-03 22:41 | 35.71611 | -13.05726 | 36247 ft | 484 kts | 38° |
| 2026-05-03 22:41 | 35.76478 | -12.99994 | 36249 ft | 484 kts | 38° |
| 2026-05-03 22:42 | 35.81337 | -12.94270 | 36251 ft | 483 kts | 38° |
| 2026-05-03 22:42 | 35.86186 | -12.88531 | 36250 ft | 483 kts | 38° |
| 2026-05-03 22:43 | 35.91025 | -12.82799 | 36247 ft | 482 kts | 38° |
| 2026-05-03 22:43 | 35.95820 | -12.77100 | 36245 ft | 481 kts | 38° |
| 2026-05-03 22:44 | 36.00642 | -12.71371 | 36245 ft | 481 kts | 38° |
| 2026-05-03 22:44 | 36.05466 | -12.65644 | 36228 ft | 481 kts | 38° |
| 2026-05-03 22:45 | 36.10289 | -12.59899 | 36224 ft | 482 kts | 38° |
| 2026-05-03 22:45 | 36.15105 | -12.54135 | 36229 ft | 482 kts | 38° |
| 2026-05-03 22:46 | 36.19887 | -12.48415 | 36229 ft | 481 kts | 38° |
| 2026-05-03 22:46 | 36.24702 | -12.42649 | 36230 ft | 481 kts | 38° |
| 2026-05-03 22:47 | 36.29511 | -12.36889 | 36233 ft | 481 kts | 38° |
| 2026-05-03 22:47 | 36.34315 | -12.31131 | 36235 ft | 480 kts | 38° |
| 2026-05-03 22:48 | 36.39108 | -12.25362 | 36234 ft | 480 kts | 38° |
| 2026-05-03 22:48 | 36.43854 | -12.19608 | 36231 ft | 480 kts | 38° |
| 2026-05-03 22:49 | 36.48635 | -12.13815 | 36229 ft | 480 kts | 38° |
| 2026-05-03 22:49 | 36.53457 | -12.08110 | 36217 ft | 468 kts | 29° |
| 2026-05-03 22:49 | 36.56147 | -12.06071 | 36218 ft | 442 kts | 20° |
| 2026-05-03 22:50 | 36.58712 | -12.03953 | 36217 ft | 447 kts | 35° |
| 2026-05-03 22:50 | 36.63029 | -11.98371 | 36220 ft | 451 kts | 41° |
| 2026-05-03 22:51 | 36.67284 | -11.92653 | 36213 ft | 452 kts | 41° |
| 2026-05-03 22:51 | 36.71617 | -11.86813 | 36212 ft | 465 kts | 41° |
| 2026-05-03 22:52 | 36.75307 | -11.81842 | 36212 ft | 475 kts | 41° |
| 2026-05-03 22:52 | 36.79852 | -11.75725 | 36211 ft | 486 kts | 41° |
| 2026-05-03 22:53 | 36.85237 | -11.68436 | 36210 ft | 494 kts | 41° |
| 2026-05-03 22:53 | 36.89821 | -11.62190 | 36211 ft | 484 kts | 41° |
| 2026-05-03 22:54 | 36.93600 | -11.57053 | 36200 ft | 483 kts | 41° |
| 2026-05-03 22:54 | 36.98147 | -11.50875 | 36201 ft | 483 kts | 41° |
| 2026-05-03 22:55 | 37.02697 | -11.44677 | 36202 ft | 484 kts | 41° |
| 2026-05-03 22:55 | 37.07239 | -11.38469 | 36201 ft | 484 kts | 41° |
| 2026-05-03 22:56 | 37.11749 | -11.32292 | 36200 ft | 483 kts | 41° |
| 2026-05-03 22:56 | 37.16284 | -11.26070 | 36199 ft | 483 kts | 41° |
| 2026-05-03 22:57 | 37.20819 | -11.19849 | 36197 ft | 483 kts | 41° |
| 2026-05-03 22:57 | 37.25349 | -11.13615 | 36195 ft | 483 kts | 41° |
| 2026-05-03 22:58 | 37.29876 | -11.07370 | 36196 ft | 484 kts | 41° |
| 2026-05-03 22:58 | 37.34375 | -11.01160 | 36195 ft | 484 kts | 41° |
| 2026-05-03 22:58 | 37.36641 | -10.98028 | 36020 ft | 485 kts | 41° |
| 2026-05-03 22:59 | 37.38892 | -10.94908 | 36092 ft | 481 kts | 41° |
| 2026-05-03 22:59 | 37.43395 | -10.88659 | 35958 ft | 483 kts | 41° |
| 2026-05-03 22:59 | 37.45675 | -10.85497 | 34884 ft | 493 kts | 42° |
| 2026-05-03 23:00 | 37.47985 | -10.82294 | 34102 ft | 494 kts | 42° |
| 2026-05-03 23:00 | 37.50283 | -10.79093 | 33501 ft | 491 kts | 43° |
| 2026-05-03 23:00 | 37.52559 | -10.75912 | 32951 ft | 486 kts | 43° |
| 2026-05-03 23:00 | 37.54780 | -10.72802 | 32417 ft | 482 kts | 43° |
| 2026-05-03 23:01 | 37.57012 | -10.69681 | 31895 ft | 477 kts | 43° |
| 2026-05-03 23:01 | 37.59225 | -10.66589 | 31380 ft | 472 kts | 42° |
| 2026-05-03 23:01 | 37.61411 | -10.63533 | 30868 ft | 467 kts | 42° |
| 2026-05-03 23:01 | 37.63580 | -10.60502 | 30381 ft | 463 kts | 42° |
| 2026-05-03 23:02 | 37.65723 | -10.57508 | 29876 ft | 458 kts | 42° |
| 2026-05-03 23:02 | 37.67849 | -10.54533 | 29373 ft | 454 kts | 42° |
| 2026-05-03 23:02 | 37.69949 | -10.51586 | 28870 ft | 450 kts | 42° |
| 2026-05-03 23:02 | 37.72033 | -10.48657 | 28287 ft | 447 kts | 43° |
| 2026-05-03 23:03 | 37.74129 | -10.45715 | 27399 ft | 453 kts | 43° |
| 2026-05-03 23:03 | 37.76248 | -10.42742 | 26523 ft | 457 kts | 43° |
| 2026-05-03 23:03 | 37.78351 | -10.39782 | 25656 ft | 460 kts | 44° |
| 2026-05-03 23:03 | 37.80494 | -10.36759 | 24776 ft | 463 kts | 45° |
| 2026-05-03 23:04 | 37.82641 | -10.33722 | 23898 ft | 464 kts | 45° |
| 2026-05-03 23:04 | 37.84783 | -10.30690 | 23421 ft | 456 kts | 45° |
| 2026-05-03 23:04 | 37.86943 | -10.27813 | 22900 ft | 448 kts | 41° |
| 2026-05-03 23:04 | 37.89058 | -10.24954 | 22496 ft | 442 kts | 47° |
| 2026-05-03 23:05 | 37.91008 | -10.21983 | 22109 ft | 435 kts | 47° |
| 2026-05-03 23:05 | 37.92914 | -10.19051 | 21756 ft | 427 kts | 47° |
| 2026-05-03 23:05 | 37.94782 | -10.16164 | 21406 ft | 420 kts | 47° |
| 2026-05-03 23:05 | 37.96595 | -10.13359 | 21061 ft | 414 kts | 48° |
| 2026-05-03 23:06 | 37.98404 | -10.10556 | 20710 ft | 407 kts | 48° |
| 2026-05-03 23:06 | 38.00183 | -10.07797 | 20359 ft | 402 kts | 48° |
| 2026-05-03 23:06 | 38.01938 | -10.05081 | 20005 ft | 395 kts | 47° |
| 2026-05-03 23:06 | 38.03713 | -10.02456 | 19822 ft | 390 kts | 45° |
| 2026-05-03 23:07 | 38.05527 | -9.99889 | 19674 ft | 391 kts | 44° |
| 2026-05-03 23:07 | 38.07366 | -9.97341 | 19183 ft | 391 kts | 44° |
| 2026-05-03 23:07 | 38.09185 | -9.94835 | 18655 ft | 391 kts | 44° |
| 2026-05-03 23:07 | 38.11024 | -9.92293 | 18129 ft | 391 kts | 44° |
| 2026-05-03 23:08 | 38.12860 | -9.89739 | 17603 ft | 391 kts | 45° |
| 2026-05-03 23:08 | 38.14700 | -9.87158 | 17081 ft | 402 kts | 45° |
| 2026-05-03 23:08 | 38.16609 | -9.84471 | 16367 ft | 415 kts | 45° |
| 2026-05-03 23:08 | 38.18519 | -9.81768 | 15992 ft | 408 kts | 46° |
| 2026-05-03 23:09 | 38.20399 | -9.79100 | 15535 ft | 403 kts | 46° |
| 2026-05-03 23:09 | 38.22267 | -9.76452 | 15058 ft | 400 kts | 46° |
| 2026-05-03 23:09 | 38.24117 | -9.73831 | 14571 ft | 396 kts | 46° |
| 2026-05-03 23:09 | 38.25950 | -9.71233 | 14087 ft | 393 kts | 46° |
| 2026-05-03 23:10 | 38.27742 | -9.68690 | 13595 ft | 390 kts | 46° |
| 2026-05-03 23:10 | 38.29569 | -9.66096 | 12755 ft | 396 kts | 46° |
| 2026-05-03 23:10 | 38.31398 | -9.63497 | 12233 ft | 392 kts | 46° |
| 2026-05-03 23:10 | 38.33205 | -9.60924 | 11711 ft | 388 kts | 47° |
| 2026-05-03 23:11 | 38.34768 | -9.58160 | 11186 ft | 385 kts | 63° |
| 2026-05-03 23:11 | 38.35528 | -9.54930 | 10660 ft | 380 kts | 85° |
| 2026-05-03 23:11 | 38.35450 | -9.51613 | 10164 ft | 372 kts | 98° |
| 2026-05-03 23:11 | 38.35142 | -9.48362 | 9699 ft | 366 kts | 99° |
| 2026-05-03 23:12 | 38.34832 | -9.45191 | 9447 ft | 355 kts | 99° |
| 2026-05-03 23:12 | 38.34535 | -9.42123 | 9192 ft | 341 kts | 99° |
| 2026-05-03 23:12 | 38.34259 | -9.39225 | 8940 ft | 319 kts | 99° |
| 2026-05-03 23:12 | 38.34010 | -9.36537 | 8694 ft | 300 kts | 99° |
| 2026-05-03 23:13 | 38.33778 | -9.33976 | 8440 ft | 283 kts | 99° |
| 2026-05-03 23:13 | 38.33595 | -9.31553 | 8183 ft | 267 kts | 91° |
| 2026-05-03 23:13 | 38.33923 | -9.29273 | 7946 ft | 261 kts | 68° |
| 2026-05-03 23:13 | 38.34894 | -9.27366 | 7765 ft | 253 kts | 43° |
| 2026-05-03 23:14 | 38.36303 | -9.26115 | 7635 ft | 244 kts | 20° |
| 2026-05-03 23:14 | 38.37925 | -9.25620 | 7504 ft | 238 kts | 360° |
| 2026-05-03 23:14 | 38.39578 | -9.25482 | 7387 ft | 238 kts | 360° |
| 2026-05-03 23:14 | 38.41227 | -9.25338 | 7261 ft | 237 kts | 0° |
| 2026-05-03 23:15 | 38.42854 | -9.25192 | 7054 ft | 237 kts | 0° |
| 2026-05-03 23:15 | 38.44498 | -9.25041 | 6774 ft | 236 kts | 0° |
| 2026-05-03 23:15 | 38.46137 | -9.24890 | 6491 ft | 236 kts | 0° |
| 2026-05-03 23:15 | 38.47770 | -9.24740 | 6200 ft | 235 kts | 0° |
| 2026-05-03 23:16 | 38.49398 | -9.24590 | 5912 ft | 234 kts | 0° |
| 2026-05-03 23:16 | 38.51024 | -9.24437 | 5624 ft | 234 kts | 0° |
| 2026-05-03 23:16 | 38.52642 | -9.24285 | 5334 ft | 233 kts | 0° |
| 2026-05-03 23:16 | 38.54260 | -9.24136 | 4987 ft | 235 kts | 0° |
| 2026-05-03 23:17 | 38.55884 | -9.23987 | 4616 ft | 231 kts | 0° |
| 2026-05-03 23:17 | 38.57455 | -9.23842 | 4319 ft | 222 kts | 0° |
| 2026-05-03 23:17 | 38.58934 | -9.23677 | 4082 ft | 214 kts | 7° |
| 2026-05-03 23:17 | 38.60351 | -9.23091 | 3766 ft | 213 kts | 21° |
| 2026-05-03 23:18 | 38.61712 | -9.22362 | 3477 ft | 211 kts | 22° |
| 2026-05-03 23:18 | 38.63064 | -9.21635 | 3203 ft | 211 kts | 22° |
| 2026-05-03 23:18 | 38.64413 | -9.20915 | 2924 ft | 209 kts | 22° |
| 2026-05-03 23:18 | 38.65751 | -9.20203 | 2654 ft | 207 kts | 23° |
| 2026-05-03 23:19 | 38.67060 | -9.19505 | 2374 ft | 200 kts | 23° |
| 2026-05-03 23:19 | 38.68317 | -9.18835 | 2114 ft | 192 kts | 23° |
| 2026-05-03 23:19 | 38.69533 | -9.18187 | 1856 ft | 186 kts | 23° |
| 2026-05-03 23:19 | 38.70702 | -9.17564 | 1627 ft | 179 kts | 24° |
| 2026-05-03 23:20 | 38.71813 | -9.16972 | 1408 ft | 166 kts | 24° |
| 2026-05-03 23:20 | 38.72843 | -9.16422 | 1182 ft | 156 kts | 24° |
| 2026-05-03 23:20 | 38.73816 | -9.15903 | 980 ft | 151 kts | 25° |
| 2026-05-03 23:20 | 38.74778 | -9.15391 | 785 ft | 149 kts | 24° |
| 2026-05-03 23:21 | 38.75733 | -9.14883 | 575 ft | 148 kts | 25° |
| 2026-05-03 23:21 | 38.76673 | -9.14369 | 384 ft | 146 kts | 25° |
| 2026-05-03 23:21 | 38.77508 | -9.13924 | 363 ft | 95 kts | 22° |
| 2026-05-03 23:21 | 38.77969 | -9.13680 | 364 ft | 63 kts | 22° |
| 2026-05-03 23:22 | 38.78190 | -9.13462 | 364 ft | 15 kts | 167° |
| 2026-05-03 23:22 | 38.78092 | -9.13435 | 360 ft | 5 kts | 168° |
| 2026-05-03 23:22 | 38.78091 | -9.13434 | 360 ft | 0 kts | 168° |
| 2026-05-03 23:23 | 38.78083 | -9.13432 | 360 ft | 6 kts | 168° |
| 2026-05-03 23:23 | 38.77995 | -9.13409 | 356 ft | 20 kts | 168° |
| 2026-05-03 23:23 | 38.77831 | -9.13363 | 351 ft | 27 kts | 168° |
| 2026-05-03 23:23 | 38.77656 | -9.13323 | 338 ft | 23 kts | 176° |
| 2026-05-03 23:24 | 38.77490 | -9.13296 | 338 ft | 25 kts | 167° |
| 2026-05-03 23:24 | 38.77319 | -9.13255 | 336 ft | 26 kts | 172° |
| 2026-05-03 23:24 | 38.77141 | -9.13209 | 338 ft | 27 kts | 168° |
| 2026-05-03 23:24 | 38.76977 | -9.13163 | 338 ft | 21 kts | 167° |
| 2026-05-03 23:25 | 38.76890 | -9.13142 | 339 ft | 4 kts | 169° |
| 2026-05-03 23:25 | 38.76879 | -9.13118 | 338 ft | 4 kts | 88° |
| 2026-05-03 23:25 | 38.76887 | -9.13078 | 337 ft | 5 kts | 79° |
| 2026-05-03 23:25 | 38.76891 | -9.13052 | 337 ft | 1 kts | 78° |
| 2026-05-03 23:28 | 38.76892 | -9.13049 | 335 ft | 1 kts | 78° |
| 2026-05-03 23:28 | 38.76893 | -9.13042 | 337 ft | 1 kts | 78° |
| 2026-05-03 23:28 | 38.76893 | -9.13041 | 335 ft | 0 kts | 78° |